Daffan, Texas
Current Conditions -  °F | °C
As of 3:15 AM on Friday 31 Oct 2014 (Local Time) from KEDC Reporting Station
Light Rain Light Rain  
Wind Chill: 63°   Ceiling: 4900
Heat Index: 63°   Visibility: 5mi
Dew Point: 59°   Wind: 7mph
Humidity: 88%   Direction: 300°WNW
Pressure: 30.18"   Gusts: NA
Location:  30.352°N, 97.5205°W
Report Text: KEDC 310815Z AUTO 30006KT 5SM -RA FEW007 SCT042 OVC049 17/15 A3018 RMK AO2 P0002
Loading
Personal Weather Stations






























Interactive Weather Map
Tropical Storm Tracking
New forecast layout! Learn more

10-Day Weather Forecast

Advertisements
Track Severe Weather on mobile